EWG2WJ EDDH-EDDS
Flight info
| Callsign | EWG2WJ |
|---|---|
| Flight time | 0h 55m |
| Altitude | 35000 |
| Route | IDEKO7G/33 IDEKO N850 NIE DCT BERXO DCT SILWE DCT OSBIT P605 TOSTU T726 LBU |
| Aircraft | A20N/M-SDE2E3FGHIRWXY/LB1 |
Departure
| Time | 2026-05-07 09:26 |
|---|---|
| Airport | Hamburg Helmut Schmidt Airport (EDDH) |
Arrival
| Time | 2026-05-07 10:21 |
|---|---|
| Airport | Stuttgart Airport (EDDS) |
| Time | Latitude | Longitude | Altitude | Speed | Heading |
|---|---|---|---|---|---|
| 2026-05-07 09:00 | 53.63334 | 10.00354 | 50 ft | 0 kts | 86° |
| 2026-05-07 09:18 | 53.63334 | 10.00344 | 50 ft | 1 kts | 86° |
| 2026-05-07 09:18 | 53.63333 | 10.00331 | 50 ft | 1 kts | 86° |
| 2026-05-07 09:18 | 53.63333 | 10.00318 | 50 ft | 1 kts | 86° |
| 2026-05-07 09:18 | 53.63332 | 10.00306 | 50 ft | 1 kts | 86° |
| 2026-05-07 09:19 | 53.63332 | 10.00293 | 50 ft | 1 kts | 86° |
| 2026-05-07 09:19 | 53.63331 | 10.00280 | 50 ft | 1 kts | 86° |
| 2026-05-07 09:19 | 53.63331 | 10.00256 | 50 ft | 2 kts | 94° |
| 2026-05-07 09:19 | 53.63333 | 10.00231 | 50 ft | 2 kts | 103° |
| 2026-05-07 09:20 | 53.63337 | 10.00207 | 48 ft | 2 kts | 119° |
| 2026-05-07 09:20 | 53.63346 | 10.00186 | 48 ft | 2 kts | 136° |
| 2026-05-07 09:20 | 53.63357 | 10.00171 | 48 ft | 1 kts | 153° |
| 2026-05-07 09:20 | 53.63363 | 10.00166 | 49 ft | 1 kts | 162° |
| 2026-05-07 09:21 | 53.63369 | 10.00163 | 49 ft | 0 kts | 171° |
| 2026-05-07 09:22 | 53.63341 | 10.00168 | 47 ft | 9 kts | 173° |
| 2026-05-07 09:22 | 53.63258 | 10.00178 | 49 ft | 14 kts | 176° |
| 2026-05-07 09:22 | 53.63156 | 10.00188 | 47 ft | 13 kts | 176° |
| 2026-05-07 09:23 | 53.63076 | 10.00187 | 47 ft | 11 kts | 197° |
| 2026-05-07 09:23 | 53.62995 | 10.00106 | 44 ft | 13 kts | 214° |
| 2026-05-07 09:23 | 53.62929 | 10.00023 | 45 ft | 12 kts | 223° |
| 2026-05-07 09:23 | 53.62899 | 9.99923 | 45 ft | 0 kts | 244° |
| 2026-05-07 09:24 | 53.62897 | 9.99915 | 45 ft | 2 kts | 244° |
| 2026-05-07 09:24 | 53.62884 | 9.99869 | 46 ft | 6 kts | 244° |
| 2026-05-07 09:24 | 53.62868 | 9.99783 | 46 ft | 9 kts | 273° |
| 2026-05-07 09:25 | 53.62919 | 9.99698 | 47 ft | 12 kts | 330° |
| 2026-05-07 09:25 | 53.63122 | 9.99527 | 48 ft | 67 kts | 334° |
| 2026-05-07 09:25 | 53.63734 | 9.98997 | 46 ft | 128 kts | 333° |
| 2026-05-07 09:25 | 53.64662 | 9.98216 | 223 ft | 157 kts | 336° |
| 2026-05-07 09:26 | 53.65671 | 9.97318 | 639 ft | 174 kts | 335° |
| 2026-05-07 09:26 | 53.66795 | 9.96295 | 1069 ft | 193 kts | 335° |
| 2026-05-07 09:26 | 53.68042 | 9.95231 | 1520 ft | 211 kts | 336° |
| 2026-05-07 09:26 | 53.69435 | 9.94066 | 1923 ft | 237 kts | 336° |
| 2026-05-07 09:27 | 53.70923 | 9.92479 | 2165 ft | 260 kts | 320° |
| 2026-05-07 09:27 | 53.71830 | 9.90059 | 2721 ft | 247 kts | 282° |
| 2026-05-07 09:27 | 53.70943 | 9.84089 | 3873 ft | 291 kts | 244° |
| 2026-05-07 09:28 | 53.70440 | 9.80901 | 4242 ft | 270 kts | 270° |
| 2026-05-07 09:28 | 53.70831 | 9.78032 | 4598 ft | 237 kts | 301° |
| 2026-05-07 09:28 | 53.71467 | 9.75498 | 4989 ft | 247 kts | 281° |
| 2026-05-07 09:28 | 53.71353 | 9.72518 | 5382 ft | 261 kts | 251° |
| 2026-05-07 09:29 | 53.70419 | 9.69930 | 5771 ft | 260 kts | 222° |
| 2026-05-07 09:29 | 53.68878 | 9.68408 | 6182 ft | 258 kts | 192° |
| 2026-05-07 09:29 | 53.67112 | 9.68155 | 6572 ft | 256 kts | 175° |
| 2026-05-07 09:29 | 53.65321 | 9.68266 | 6943 ft | 259 kts | 177° |
| 2026-05-07 09:30 | 53.63544 | 9.68167 | 7320 ft | 261 kts | 182° |
| 2026-05-07 09:30 | 53.61730 | 9.67807 | 7702 ft | 263 kts | 187° |
| 2026-05-07 09:30 | 53.59930 | 9.67263 | 8080 ft | 263 kts | 189° |
| 2026-05-07 09:30 | 53.58098 | 9.66610 | 8486 ft | 280 kts | 191° |
| 2026-05-07 09:31 | 53.56148 | 9.65883 | 8886 ft | 291 kts | 191° |
| 2026-05-07 09:31 | 53.54174 | 9.65138 | 9285 ft | 290 kts | 192° |
| 2026-05-07 09:31 | 53.52207 | 9.64397 | 9694 ft | 291 kts | 192° |
| 2026-05-07 09:31 | 53.50219 | 9.63656 | 9981 ft | 294 kts | 192° |
| 2026-05-07 09:32 | 53.48219 | 9.62911 | 10042 ft | 293 kts | 192° |
| 2026-05-07 09:32 | 53.46225 | 9.62172 | 10062 ft | 295 kts | 192° |
| 2026-05-07 09:32 | 53.44185 | 9.61418 | 10158 ft | 309 kts | 192° |
| 2026-05-07 09:32 | 53.42001 | 9.60613 | 10429 ft | 333 kts | 192° |
| 2026-05-07 09:33 | 53.39694 | 9.59764 | 11113 ft | 342 kts | 192° |
| 2026-05-07 09:33 | 53.37367 | 9.58909 | 11996 ft | 345 kts | 192° |
| 2026-05-07 09:33 | 53.35003 | 9.58041 | 12841 ft | 350 kts | 193° |
| 2026-05-07 09:33 | 53.32621 | 9.57166 | 13718 ft | 353 kts | 193° |
| 2026-05-07 09:34 | 53.30203 | 9.56277 | 14481 ft | 357 kts | 193° |
| 2026-05-07 09:34 | 53.27773 | 9.55385 | 15297 ft | 359 kts | 193° |
| 2026-05-07 09:34 | 53.25357 | 9.54500 | 16050 ft | 362 kts | 193° |
| 2026-05-07 09:34 | 53.22853 | 9.53585 | 16813 ft | 365 kts | 193° |
| 2026-05-07 09:35 | 53.20357 | 9.52674 | 17566 ft | 369 kts | 193° |
| 2026-05-07 09:35 | 53.17875 | 9.51769 | 18291 ft | 372 kts | 193° |
| 2026-05-07 09:35 | 53.15338 | 9.50845 | 18934 ft | 375 kts | 193° |
| 2026-05-07 09:35 | 53.12776 | 9.49912 | 19599 ft | 377 kts | 193° |
| 2026-05-07 09:36 | 53.10200 | 9.48976 | 20239 ft | 380 kts | 193° |
| 2026-05-07 09:36 | 53.07607 | 9.48034 | 20874 ft | 383 kts | 193° |
| 2026-05-07 09:36 | 53.04985 | 9.47083 | 21466 ft | 387 kts | 193° |
| 2026-05-07 09:36 | 53.02344 | 9.46127 | 22082 ft | 390 kts | 193° |
| 2026-05-07 09:37 | 52.99678 | 9.45174 | 22695 ft | 394 kts | 192° |
| 2026-05-07 09:37 | 52.96952 | 9.44517 | 23305 ft | 398 kts | 188° |
| 2026-05-07 09:37 | 52.94194 | 9.43936 | 23840 ft | 401 kts | 188° |
| 2026-05-07 09:37 | 52.91412 | 9.43346 | 24322 ft | 404 kts | 188° |
| 2026-05-07 09:38 | 52.88614 | 9.42750 | 24815 ft | 407 kts | 188° |
| 2026-05-07 09:38 | 52.85792 | 9.42149 | 25300 ft | 410 kts | 188° |
| 2026-05-07 09:38 | 52.82951 | 9.41543 | 25773 ft | 413 kts | 188° |
| 2026-05-07 09:38 | 52.80089 | 9.40934 | 26223 ft | 416 kts | 188° |
| 2026-05-07 09:39 | 52.77207 | 9.40321 | 26673 ft | 419 kts | 188° |
| 2026-05-07 09:39 | 52.74307 | 9.39704 | 27092 ft | 422 kts | 188° |
| 2026-05-07 09:39 | 52.71383 | 9.39084 | 27532 ft | 425 kts | 188° |
| 2026-05-07 09:39 | 52.68443 | 9.38460 | 27929 ft | 428 kts | 188° |
| 2026-05-07 09:40 | 52.65475 | 9.37902 | 28317 ft | 431 kts | 184° |
| 2026-05-07 09:40 | 52.62501 | 9.37845 | 28708 ft | 434 kts | 178° |
| 2026-05-07 09:40 | 52.59490 | 9.38379 | 29089 ft | 437 kts | 171° |
| 2026-05-07 09:40 | 52.56507 | 9.39441 | 29460 ft | 440 kts | 167° |
| 2026-05-07 09:41 | 52.53523 | 9.40588 | 29848 ft | 442 kts | 167° |
| 2026-05-07 09:41 | 52.50516 | 9.41731 | 30180 ft | 444 kts | 167° |
| 2026-05-07 09:41 | 52.47492 | 9.42870 | 30497 ft | 447 kts | 167° |
| 2026-05-07 09:41 | 52.44456 | 9.44007 | 30836 ft | 449 kts | 168° |
| 2026-05-07 09:42 | 52.41403 | 9.45144 | 31145 ft | 451 kts | 168° |
| 2026-05-07 09:42 | 52.38341 | 9.46283 | 31539 ft | 451 kts | 168° |
| 2026-05-07 09:42 | 52.35271 | 9.47424 | 31964 ft | 451 kts | 168° |
| 2026-05-07 09:42 | 52.32221 | 9.48556 | 32399 ft | 450 kts | 168° |
| 2026-05-07 09:43 | 52.29171 | 9.49686 | 32793 ft | 449 kts | 168° |
| 2026-05-07 09:43 | 52.26127 | 9.50812 | 33193 ft | 448 kts | 168° |
| 2026-05-07 09:43 | 52.23085 | 9.51936 | 33562 ft | 448 kts | 168° |
| 2026-05-07 09:43 | 52.20044 | 9.53057 | 33917 ft | 448 kts | 168° |
| 2026-05-07 09:44 | 52.17003 | 9.54178 | 34250 ft | 448 kts | 168° |
| 2026-05-07 09:44 | 52.13968 | 9.55296 | 34545 ft | 447 kts | 168° |
| 2026-05-07 09:44 | 52.10931 | 9.56411 | 34813 ft | 447 kts | 168° |
| 2026-05-07 09:44 | 52.07899 | 9.57523 | 34987 ft | 447 kts | 168° |
| 2026-05-07 09:45 | 52.04909 | 9.58617 | 35010 ft | 446 kts | 168° |
| 2026-05-07 09:45 | 51.98863 | 9.60827 | 35009 ft | 445 kts | 168° |
| 2026-05-07 09:46 | 51.92812 | 9.63033 | 35002 ft | 445 kts | 168° |
| 2026-05-07 09:46 | 51.86769 | 9.65231 | 35004 ft | 445 kts | 168° |
| 2026-05-07 09:47 | 51.80725 | 9.67424 | 35001 ft | 445 kts | 168° |
| 2026-05-07 09:47 | 51.74682 | 9.69609 | 34998 ft | 445 kts | 168° |
| 2026-05-07 09:48 | 51.68639 | 9.71788 | 34996 ft | 445 kts | 168° |
| 2026-05-07 09:48 | 51.62601 | 9.73960 | 34989 ft | 444 kts | 168° |
| 2026-05-07 09:49 | 51.56565 | 9.76123 | 34987 ft | 444 kts | 168° |
| 2026-05-07 09:49 | 51.50528 | 9.78281 | 34985 ft | 444 kts | 168° |
| 2026-05-07 09:50 | 51.44481 | 9.80438 | 34987 ft | 444 kts | 168° |
| 2026-05-07 09:50 | 51.39462 | 9.82223 | 34981 ft | 445 kts | 168° |
| 2026-05-07 09:51 | 51.33421 | 9.84368 | 34979 ft | 445 kts | 168° |
| 2026-05-07 09:51 | 51.26399 | 9.86849 | 34976 ft | 445 kts | 169° |
| 2026-05-07 09:52 | 51.21269 | 9.87905 | 34969 ft | 444 kts | 178° |
| 2026-05-07 09:52 | 51.15112 | 9.87615 | 34968 ft | 443 kts | 184° |
| 2026-05-07 09:53 | 51.08953 | 9.87036 | 34966 ft | 444 kts | 184° |
| 2026-05-07 09:53 | 51.02829 | 9.86494 | 34968 ft | 444 kts | 184° |
| 2026-05-07 09:54 | 50.96656 | 9.85956 | 34969 ft | 445 kts | 184° |
| 2026-05-07 09:54 | 50.90477 | 9.85420 | 34975 ft | 445 kts | 184° |
| 2026-05-07 09:55 | 50.84293 | 9.84884 | 34971 ft | 445 kts | 184° |
| 2026-05-07 09:55 | 50.78110 | 9.84350 | 34969 ft | 445 kts | 184° |
| 2026-05-07 09:56 | 50.71917 | 9.83817 | 34973 ft | 445 kts | 184° |
| 2026-05-07 09:56 | 50.65725 | 9.83285 | 34981 ft | 446 kts | 184° |
| 2026-05-07 09:57 | 50.59535 | 9.82753 | 34977 ft | 446 kts | 184° |
| 2026-05-07 09:57 | 50.53341 | 9.82224 | 34978 ft | 446 kts | 184° |
| 2026-05-07 09:58 | 50.47151 | 9.81695 | 34977 ft | 445 kts | 184° |
| 2026-05-07 09:58 | 50.40952 | 9.81168 | 34979 ft | 445 kts | 184° |
| 2026-05-07 09:59 | 50.34766 | 9.80643 | 34818 ft | 446 kts | 184° |
| 2026-05-07 09:59 | 50.31669 | 9.80380 | 34587 ft | 445 kts | 184° |
| 2026-05-07 09:59 | 50.28577 | 9.80119 | 34253 ft | 445 kts | 184° |
| 2026-05-07 09:59 | 50.25484 | 9.79858 | 33847 ft | 445 kts | 184° |
| 2026-05-07 10:00 | 50.22424 | 9.79600 | 33270 ft | 447 kts | 184° |
| 2026-05-07 10:00 | 50.19305 | 9.79337 | 32649 ft | 450 kts | 184° |
| 2026-05-07 10:00 | 50.16176 | 9.79074 | 32043 ft | 453 kts | 184° |
| 2026-05-07 10:00 | 50.13012 | 9.78807 | 31451 ft | 456 kts | 184° |
| 2026-05-07 10:01 | 50.09830 | 9.78540 | 30875 ft | 459 kts | 184° |
| 2026-05-07 10:01 | 50.06632 | 9.78338 | 30307 ft | 461 kts | 180° |
| 2026-05-07 10:01 | 50.03434 | 9.78511 | 29683 ft | 459 kts | 178° |
| 2026-05-07 10:01 | 50.00260 | 9.78727 | 29021 ft | 454 kts | 178° |
| 2026-05-07 10:02 | 49.97121 | 9.78938 | 28377 ft | 450 kts | 178° |
| 2026-05-07 10:02 | 49.94010 | 9.79143 | 27752 ft | 445 kts | 179° |
| 2026-05-07 10:02 | 49.90933 | 9.79343 | 27137 ft | 441 kts | 179° |
| 2026-05-07 10:02 | 49.87884 | 9.79539 | 26534 ft | 436 kts | 179° |
| 2026-05-07 10:03 | 49.84866 | 9.79732 | 25946 ft | 432 kts | 179° |
| 2026-05-07 10:03 | 49.81881 | 9.79923 | 25368 ft | 428 kts | 179° |
| 2026-05-07 10:03 | 49.78917 | 9.80112 | 24807 ft | 424 kts | 179° |
| 2026-05-07 10:03 | 49.75982 | 9.80300 | 24249 ft | 420 kts | 179° |
| 2026-05-07 10:04 | 49.73070 | 9.80485 | 23704 ft | 417 kts | 179° |
| 2026-05-07 10:04 | 49.70180 | 9.80667 | 23084 ft | 414 kts | 179° |
| 2026-05-07 10:04 | 49.67313 | 9.80811 | 22459 ft | 411 kts | 179° |
| 2026-05-07 10:04 | 49.64468 | 9.80934 | 21840 ft | 407 kts | 180° |
| 2026-05-07 10:05 | 49.61643 | 9.81067 | 21231 ft | 404 kts | 178° |
| 2026-05-07 10:05 | 49.58862 | 9.81587 | 20639 ft | 401 kts | 171° |
| 2026-05-07 10:05 | 49.56126 | 9.82358 | 20056 ft | 398 kts | 171° |
| 2026-05-07 10:05 | 49.53413 | 9.83119 | 19475 ft | 395 kts | 171° |
| 2026-05-07 10:06 | 49.50719 | 9.83870 | 18930 ft | 392 kts | 171° |
| 2026-05-07 10:06 | 49.48047 | 9.84612 | 18380 ft | 389 kts | 171° |
| 2026-05-07 10:06 | 49.45430 | 9.85336 | 17772 ft | 386 kts | 171° |
| 2026-05-07 10:06 | 49.42797 | 9.86062 | 17154 ft | 384 kts | 171° |
| 2026-05-07 10:07 | 49.40177 | 9.86784 | 16547 ft | 381 kts | 171° |
| 2026-05-07 10:07 | 49.37573 | 9.87501 | 15956 ft | 379 kts | 171° |
| 2026-05-07 10:07 | 49.34985 | 9.88213 | 15371 ft | 377 kts | 171° |
| 2026-05-07 10:07 | 49.32412 | 9.88921 | 14796 ft | 374 kts | 171° |
| 2026-05-07 10:08 | 49.29857 | 9.89623 | 14243 ft | 372 kts | 171° |
| 2026-05-07 10:08 | 49.27311 | 9.90321 | 13673 ft | 370 kts | 171° |
| 2026-05-07 10:08 | 49.24784 | 9.91014 | 13058 ft | 368 kts | 172° |
| 2026-05-07 10:08 | 49.22275 | 9.91702 | 12575 ft | 363 kts | 172° |
| 2026-05-07 10:09 | 49.19834 | 9.92371 | 12284 ft | 352 kts | 172° |
| 2026-05-07 10:09 | 49.17411 | 9.92615 | 11681 ft | 347 kts | 188° |
| 2026-05-07 10:09 | 49.15098 | 9.91708 | 11028 ft | 343 kts | 206° |
| 2026-05-07 10:09 | 49.13038 | 9.89919 | 10413 ft | 340 kts | 213° |
| 2026-05-07 10:10 | 49.11038 | 9.88048 | 9916 ft | 336 kts | 213° |
| 2026-05-07 10:10 | 49.09063 | 9.86207 | 9251 ft | 328 kts | 213° |
| 2026-05-07 10:10 | 49.07134 | 9.84418 | 8584 ft | 321 kts | 213° |
| 2026-05-07 10:10 | 49.05247 | 9.82673 | 7943 ft | 314 kts | 213° |
| 2026-05-07 10:11 | 49.03395 | 9.80963 | 7310 ft | 307 kts | 213° |
| 2026-05-07 10:11 | 49.01583 | 9.79293 | 6696 ft | 302 kts | 213° |
| 2026-05-07 10:11 | 48.99799 | 9.77649 | 6062 ft | 297 kts | 213° |
| 2026-05-07 10:11 | 48.98047 | 9.76037 | 5420 ft | 292 kts | 213° |
| 2026-05-07 10:12 | 48.96323 | 9.74451 | 4807 ft | 288 kts | 213° |
| 2026-05-07 10:12 | 48.94620 | 9.72891 | 4178 ft | 284 kts | 213° |
| 2026-05-07 10:12 | 48.92944 | 9.71350 | 3673 ft | 277 kts | 213° |
| 2026-05-07 10:12 | 48.91339 | 9.69880 | 3490 ft | 260 kts | 213° |
| 2026-05-07 10:13 | 48.89861 | 9.68529 | 3468 ft | 237 kts | 213° |
| 2026-05-07 10:13 | 48.88510 | 9.67292 | 3469 ft | 218 kts | 213° |
| 2026-05-07 10:13 | 48.87256 | 9.66140 | 3461 ft | 213 kts | 214° |
| 2026-05-07 10:13 | 48.85975 | 9.64960 | 3440 ft | 216 kts | 213° |
| 2026-05-07 10:14 | 48.84694 | 9.63788 | 3430 ft | 213 kts | 213° |
| 2026-05-07 10:14 | 48.83407 | 9.62611 | 3424 ft | 216 kts | 213° |
| 2026-05-07 10:14 | 48.82120 | 9.61438 | 3437 ft | 215 kts | 213° |
| 2026-05-07 10:14 | 48.80839 | 9.60273 | 3439 ft | 214 kts | 214° |
| 2026-05-07 10:15 | 48.79555 | 9.59102 | 3443 ft | 216 kts | 213° |
| 2026-05-07 10:15 | 48.78268 | 9.57953 | 3441 ft | 215 kts | 213° |
| 2026-05-07 10:15 | 48.76981 | 9.56791 | 3431 ft | 214 kts | 214° |
| 2026-05-07 10:15 | 48.75814 | 9.55399 | 3446 ft | 214 kts | 232° |
| 2026-05-07 10:16 | 48.75080 | 9.53623 | 3657 ft | 188 kts | 246° |
| 2026-05-07 10:16 | 48.74605 | 9.51773 | 3677 ft | 186 kts | 253° |
| 2026-05-07 10:16 | 48.74244 | 9.49959 | 3675 ft | 177 kts | 255° |
| 2026-05-07 10:16 | 48.73904 | 9.48153 | 3686 ft | 179 kts | 255° |
| 2026-05-07 10:17 | 48.73560 | 9.46335 | 3688 ft | 181 kts | 255° |
| 2026-05-07 10:17 | 48.73225 | 9.44571 | 3682 ft | 171 kts | 255° |
| 2026-05-07 10:17 | 48.72901 | 9.42849 | 3698 ft | 167 kts | 255° |
| 2026-05-07 10:17 | 48.72578 | 9.41147 | 3556 ft | 168 kts | 255° |
| 2026-05-07 10:18 | 48.72254 | 9.39442 | 3325 ft | 163 kts | 255° |
| 2026-05-07 10:18 | 48.71962 | 9.37903 | 3112 ft | 142 kts | 255° |
| 2026-05-07 10:18 | 48.71702 | 9.36525 | 2937 ft | 136 kts | 255° |
| 2026-05-07 10:18 | 48.71439 | 9.35138 | 2753 ft | 137 kts | 255° |
| 2026-05-07 10:19 | 48.71176 | 9.33748 | 2579 ft | 137 kts | 255° |
| 2026-05-07 10:19 | 48.70914 | 9.32361 | 2379 ft | 138 kts | 256° |
| 2026-05-07 10:19 | 48.70652 | 9.30980 | 2160 ft | 136 kts | 255° |
| 2026-05-07 10:19 | 48.70395 | 9.29618 | 1969 ft | 137 kts | 256° |
| 2026-05-07 10:20 | 48.70129 | 9.28220 | 1763 ft | 139 kts | 256° |
| 2026-05-07 10:20 | 48.69932 | 9.27150 | 1650 ft | 136 kts | 256° |
| 2026-05-07 10:20 | 48.69674 | 9.25738 | 1474 ft | 135 kts | 255° |
| 2026-05-07 10:20 | 48.69397 | 9.24373 | 1335 ft | 129 kts | 255° |
| 2026-05-07 10:21 | 48.69178 | 9.23170 | 1286 ft | 98 kts | 255° |
| 2026-05-07 10:21 | 48.69045 | 9.22479 | 1286 ft | 40 kts | 254° |
| 2026-05-07 10:21 | 48.68985 | 9.22171 | 1287 ft | 46 kts | 253° |
| 2026-05-07 10:21 | 48.68954 | 9.21695 | 1286 ft | 28 kts | 279° |
| 2026-05-07 10:22 | 48.68973 | 9.21571 | 1288 ft | 0 kts | 284° |
| 2026-05-07 10:23 | 48.68981 | 9.21518 | 1285 ft | 13 kts | 284° |
| 2026-05-07 10:23 | 48.68997 | 9.21337 | 1287 ft | 21 kts | 256° |
| 2026-05-07 10:23 | 48.69029 | 9.21106 | 1286 ft | 25 kts | 276° |
| 2026-05-07 10:23 | 48.68988 | 9.20827 | 1287 ft | 25 kts | 253° |
| 2026-05-07 10:24 | 48.68945 | 9.20595 | 1287 ft | 7 kts | 253° |
| 2026-05-07 10:24 | 48.68930 | 9.20512 | 1287 ft | 15 kts | 254° |
| 2026-05-07 10:24 | 48.68894 | 9.20323 | 1285 ft | 22 kts | 252° |
| 2026-05-07 10:24 | 48.68844 | 9.20061 | 1288 ft | 29 kts | 254° |
| 2026-05-07 10:25 | 48.68856 | 9.19898 | 1286 ft | 9 kts | 320° |
| 2026-05-07 10:25 | 48.68880 | 9.19786 | 1285 ft | 13 kts | 264° |
| 2026-05-07 10:25 | 48.68930 | 9.19726 | 1287 ft | 10 kts | 344° |
| 2026-05-07 10:25 | 48.68942 | 9.19721 | 1286 ft | 0 kts | 342° |